Time;durP1;ratioP1;P1;durP2;ratioP2;P2;SDS_P1;SDS_P2;PMS_P1;PMS_P2;Temp;Humidity;BMP_temperature;BMP_pressure;BME280_temperature;BME280_humidity;BME280_pressure;Samples;Min_cycle;Max_cycle;Signal;HPM_P1;HPM_P2
2023/01/21 00:01:48;;;;;;;9.23;5.43;;;20.30;54.30;;;;;;5031714;28;20034;-80
2023/01/21 00:04:14;;;;;;;8.40;5.35;;;20.30;54.30;;;;;;5031487;28;20100;-79
2023/01/21 00:06:40;;;;;;;8.43;5.32;;;20.30;54.30;;;;;;5046295;28;20030;-79
2023/01/21 00:09:07;;;;;;;8.77;5.40;;;20.30;54.30;;;;;;5031568;28;20108;-79
2023/01/21 00:11:33;;;;;;;7.18;5.35;;;20.30;54.30;;;;;;5031100;28;20029;-80
2023/01/21 00:13:59;;;;;;;8.80;5.70;;;20.30;54.30;;;;;;5031836;28;20021;-80
2023/01/21 00:16:25;;;;;;;10.02;5.65;;;20.30;54.30;;;;;;5028952;28;20037;-79
2023/01/21 00:18:50;;;;;;;10.55;5.72;;;20.30;54.30;;;;;;5027763;28;20116;-80
2023/01/21 00:21:16;;;;;;;11.13;5.57;;;20.40;54.30;;;;;;5031026;28;20031;-80
2023/01/21 00:23:44;;;;;;;8.95;5.30;;;20.30;54.30;;;;;;5030055;28;20474;-80
2023/01/21 00:26:12;;;;;;;12.38;5.88;;;20.40;54.30;;;;;;5011305;28;20029;-80
2023/01/21 00:28:40;;;;;;;8.77;5.63;;;20.40;54.30;;;;;;5011438;28;20022;-81
2023/01/21 00:31:07;;;;;;;8.60;5.07;;;20.40;54.30;;;;;;5010253;28;20041;-80
2023/01/21 00:33:34;;;;;;;12.00;6.10;;;20.40;54.30;;;;;;4993972;28;20061;-79
2023/01/21 00:36:05;;;;;;;9.48;5.00;;;20.40;54.20;;;;;;5011972;28;20042;-79
2023/01/21 00:38:32;;;;;;;8.98;4.82;;;20.40;54.30;;;;;;5030108;28;20175;-80
2023/01/21 00:41:00;;;;;;;9.35;5.40;;;20.40;54.40;;;;;;5013396;28;20433;-80
2023/01/21 00:43:25;;;;;;;8.80;4.90;;;20.40;54.50;;;;;;5013504;28;20367;-81
2023/01/21 00:45:51;;;;;;;7.45;4.68;;;20.40;54.50;;;;;;5029739;28;20037;-80
2023/01/21 00:48:17;;;;;;;8.32;4.90;;;20.40;54.60;;;;;;5030161;28;20017;-81
2023/01/21 00:50:43;;;;;;;9.63;5.28;;;20.40;54.70;;;;;;5030956;28;20032;-81
2023/01/21 00:53:08;;;;;;;7.20;4.63;;;20.40;54.60;;;;;;5045819;28;20512;-80
2023/01/21 00:55:34;;;;;;;9.02;4.80;;;20.40;54.70;;;;;;5012876;28;20061;-80
2023/01/21 00:58:00;;;;;;;8.30;4.70;;;20.40;54.70;;;;;;5029672;28;20030;-79
2023/01/21 01:00:25;;;;;;;8.15;4.88;;;20.40;54.80;;;;;;5030854;28;20030;-80
2023/01/21 01:02:51;;;;;;;8.10;4.70;;;20.40;54.80;;;;;;5044806;28;20116;-78
2023/01/21 01:05:18;;;;;;;10.60;5.05;;;20.40;54.80;;;;;;5028050;28;20144;-79
2023/01/21 01:07:46;;;;;;;11.00;4.78;;;20.40;54.90;;;;;;5019741;28;20041;-79
2023/01/21 01:10:12;;;;;;;10.82;5.10;;;20.40;55.00;;;;;;5045102;28;20107;-76
2023/01/21 01:12:38;;;;;;;7.10;4.07;;;20.40;55.40;;;;;;5012703;28;20252;-82
2023/01/21 01:15:04;;;;;;;12.23;5.20;;;20.40;54.90;;;;;;4996908;28;20045;-81
2023/01/21 01:17:30;;;;;;;10.13;5.20;;;20.40;54.80;;;;;;5032387;28;20057;-79
2023/01/21 01:19:57;;;;;;;10.65;6.13;;;20.40;54.80;;;;;;5049652;28;20057;-79
2023/01/21 01:22:23;;;;;;;13.43;6.60;;;20.40;54.50;;;;;;5018742;28;20116;-79
2023/01/21 01:24:48;;;;;;;14.05;6.55;;;20.40;55.00;;;;;;5034555;28;20026;-80
2023/01/21 01:27:14;;;;;;;19.88;6.72;;;20.40;55.10;;;;;;5033928;28;20124;-81
2023/01/21 01:29:40;;;;;;;12.68;6.40;;;20.40;54.60;;;;;;5031451;28;20041;-80
2023/01/21 01:32:06;;;;;;;13.35;5.75;;;20.40;54.70;;;;;;5048273;28;20033;-80
2023/01/21 01:34:31;;;;;;;14.70;5.85;;;20.30;54.80;;;;;;5032683;28;20034;-79
2023/01/21 01:36:57;;;;;;;13.05;6.40;;;20.40;54.90;;;;;;5031316;28;20021;-79
2023/01/21 01:39:23;;;;;;;11.50;5.75;;;20.30;54.90;;;;;;5047662;28;20056;-79
2023/01/21 01:41:49;;;;;;;16.83;5.68;;;20.30;55.00;;;;;;5031407;28;20072;-80
2023/01/21 01:44:52;;;;;;;10.15;5.53;;;20.30;54.90;;;;;;5031814;28;20032;-79
2023/01/21 01:47:19;;;;;;;12.70;6.00;;;20.30;55.00;;;;;;5032991;28;20036;-79
2023/01/21 01:49:46;;;;;;;10.35;5.28;;;20.30;55.00;;;;;;5031507;28;20072;-80
2023/01/21 01:52:14;;;;;;;9.63;5.63;;;20.30;55.00;;;;;;5032008;28;20021;-80
2023/01/21 01:54:45;;;;;;;11.65;5.13;;;20.30;55.10;;;;;;5049665;28;20039;-80
2023/01/21 01:57:13;;;;;;;11.50;5.60;;;20.30;55.10;;;;;;5015551;28;20509;-80
2023/01/21 01:59:40;;;;;;;11.73;5.40;;;20.30;55.10;;;;;;5049405;28;20075;-80
2023/01/21 02:02:10;;;;;;;11.93;6.25;;;20.30;55.10;;;;;;5018276;28;20073;-81
2023/01/21 02:04:59;;;;;;;14.73;5.13;;;20.20;55.10;;;;;;5031832;28;20042;-80
2023/01/21 02:07:27;;;;;;;10.48;5.45;;;20.20;55.20;;;;;;4998079;28;20053;-80
2023/01/21 02:09:54;;;;;;;15.50;5.40;;;20.20;55.10;;;;;;5031859;28;20398;-79
2023/01/21 02:12:21;;;;;;;16.02;5.97;;;20.20;55.10;;;;;;5031053;28;20037;-80
2023/01/21 02:14:47;;;;;;;11.38;5.47;;;20.20;55.10;;;;;;5031924;28;20041;-80
2023/01/21 02:17:39;;;;;;;10.80;5.18;;;20.20;55.10;;;;;;5031088;28;20116;-80
2023/01/21 02:20:34;;;;;;;12.90;4.68;;;20.20;55.00;;;;;;5031134;28;20033;-81
2023/01/21 02:23:12;;;;;;;11.48;5.43;;;20.20;55.10;;;;;;5020432;28;20389;-81
2023/01/21 02:25:59;;;;;;;9.10;5.40;;;20.20;55.10;;;;;;5032273;28;20053;-81
2023/01/21 02:28:36;;;;;;;14.32;5.70;;;20.30;55.10;;;;;;5030120;28;20477;-81
2023/01/21 02:31:23;;;;;;;10.88;5.32;;;20.30;55.30;;;;;;5031606;28;20038;-81
2023/01/21 02:34:04;;;;;;;11.93;5.43;;;20.20;55.10;;;;;;5032552;28;20539;-80
2023/01/21 02:36:47;;;;;;;10.10;5.10;;;20.20;55.00;;;;;;5029284;28;20045;-81
2023/01/21 02:39:41;;;;;;;8.13;4.68;;;20.20;55.20;;;;;;5047779;28;20090;-81
2023/01/21 02:42:15;;;;;;;8.57;4.97;;;20.20;55.40;;;;;;5031955;28;20048;-81
2023/01/21 02:44:49;;;;;;;9.25;5.10;;;20.20;55.50;;;;;;5032396;28;20397;-81
2023/01/21 02:47:30;;;;;;;12.68;5.45;;;20.20;55.40;;;;;;5032044;28;20079;-80
2023/01/21 02:50:37;;;;;;;11.52;5.35;;;20.20;55.20;;;;;;5032936;28;20033;-80
2023/01/21 02:53:04;;;;;;;9.20;5.75;;;20.20;55.20;;;;;;5015680;28;20414;-80
2023/01/21 02:55:38;;;;;;;8.70;5.55;;;20.20;55.20;;;;;;5032023;28;20029;-80
2023/01/21 02:58:10;;;;;;;11.70;5.00;;;20.20;55.30;;;;;;5014811;28;20025;-80
2023/01/21 03:00:54;;;;;;;11.45;5.00;;;20.20;55.40;;;;;;5031045;28;20092;-81
2023/01/21 03:03:46;;;;;;;9.60;5.18;;;20.20;55.50;;;;;;5022468;28;20490;-81
2023/01/21 03:06:40;;;;;;;9.80;5.15;;;20.20;55.50;;;;;;5030153;28;20044;-80
2023/01/21 03:09:22;;;;;;;9.93;4.82;;;20.20;55.50;;;;;;5032094;28;20485;-80
2023/01/21 03:12:14;;;;;;;9.68;5.18;;;20.20;55.60;;;;;;5031176;28;20036;-81
2023/01/21 03:17:40;;;;;;;10.90;5.50;;;20.20;55.40;;;;;;5031548;28;20493;-80
2023/01/21 03:20:14;;;;;;;11.65;5.88;;;20.20;55.40;;;;;;5030641;28;20490;-80
2023/01/21 03:22:41;;;;;;;8.68;5.15;;;20.20;55.40;;;;;;5029558;28;20049;-80
2023/01/21 03:25:08;;;;;;;10.93;5.03;;;20.20;55.30;;;;;;5029703;28;20144;-80
2023/01/21 03:27:38;;;;;;;10.27;5.78;;;20.20;55.30;;;;;;5013866;28;20397;-79
2023/01/21 03:30:20;;;;;;;8.30;4.78;;;20.20;55.30;;;;;;5030659;28;20017;-80
2023/01/21 03:32:49;;;;;;;9.18;5.25;;;20.20;55.50;;;;;;5016377;28;20045;-80
2023/01/21 03:35:26;;;;;;;8.18;5.10;;;20.20;55.40;;;;;;5030000;28;20451;-80
2023/01/21 03:38:13;;;;;;;11.20;5.35;;;20.20;55.30;;;;;;5028826;28;20025;-81
2023/01/21 03:40:46;;;;;;;14.10;5.95;;;20.20;55.70;;;;;;5029014;28;20510;-81
2023/01/21 03:43:11;;;;;;;10.00;5.80;;;20.20;55.30;;;;;;5032172;28;20466;-81
2023/01/21 03:45:47;;;;;;;9.07;4.93;;;20.20;55.50;;;;;;5031639;28;20114;-80
2023/01/21 03:48:20;;;;;;;8.32;5.20;;;20.20;55.40;;;;;;5031267;28;20052;-81
2023/01/21 03:50:54;;;;;;;9.77;5.03;;;20.20;55.40;;;;;;5031735;28;20076;-81
2023/01/21 03:53:20;;;;;;;9.23;4.75;;;20.20;55.60;;;;;;5031411;28;20029;-81
2023/01/21 03:55:49;;;;;;;8.35;5.15;;;20.20;55.50;;;;;;5030740;28;20116;-81
2023/01/21 03:58:15;;;;;;;8.00;4.95;;;20.10;55.50;;;;;;5011886;28;20021;-82
2023/01/21 04:00:41;;;;;;;9.13;4.97;;;20.10;55.40;;;;;;5030102;28;20035;-82
2023/01/21 04:03:07;;;;;;;7.50;4.70;;;20.20;55.50;;;;;;5028996;28;20036;-82
2023/01/21 04:05:34;;;;;;;7.93;4.97;;;20.20;55.40;;;;;;5012184;28;20029;-82
2023/01/21 04:08:00;;;;;;;9.00;4.95;;;20.10;55.50;;;;;;5029751;28;20037;-82
2023/01/21 04:10:25;;;;;;;8.60;4.75;;;20.10;55.40;;;;;;5029990;28;20025;-82
2023/01/21 04:12:51;;;;;;;8.32;4.90;;;20.20;55.70;;;;;;5013498;28;20041;-81
2023/01/21 04:15:17;;;;;;;13.00;5.38;;;20.20;55.50;;;;;;5031316;28;20036;-81
2023/01/21 04:17:42;;;;;;;12.98;5.15;;;20.10;55.60;;;;;;5031095;28;20034;-80
2023/01/21 04:20:09;;;;;;;8.88;4.90;;;20.10;55.80;;;;;;5031283;28;20037;-81
2023/01/21 04:22:34;;;;;;;11.52;5.40;;;20.20;55.70;;;;;;5029262;28;20025;-81
2023/01/21 04:25:00;;;;;;;10.25;4.65;;;20.20;55.60;;;;;;5029702;28;20036;-81
2023/01/21 04:27:26;;;;;;;13.20;5.53;;;20.20;55.80;;;;;;5030403;28;20083;-82
2023/01/21 04:29:52;;;;;;;9.88;4.68;;;20.20;55.70;;;;;;5028927;28;20022;-81
2023/01/21 04:32:18;;;;;;;11.63;4.95;;;20.20;55.60;;;;;;5029058;28;20037;-81
2023/01/21 04:34:43;;;;;;;7.70;4.88;;;20.20;55.70;;;;;;5028855;28;20038;-81
2023/01/21 04:37:09;;;;;;;9.90;4.90;;;20.20;55.60;;;;;;5031022;28;20033;-81
2023/01/21 04:39:35;;;;;;;8.63;4.80;;;20.20;55.70;;;;;;5029387;28;20042;-80
2023/01/21 04:42:01;;;;;;;10.45;5.03;;;20.10;55.60;;;;;;5045830;23;20016;-71
2023/01/21 04:44:26;;;;;;;7.60;4.68;;;20.20;56.20;;;;;;5031105;28;20090;-71
2023/01/21 04:46:52;;;;;;;9.18;5.22;;;20.20;55.80;;;;;;5051880;28;20499;-71
2023/01/21 04:49:18;;;;;;;8.45;4.60;;;20.20;56.30;;;;;;5068933;28;20025;-71
2023/01/21 04:51:44;;;;;;;8.38;5.00;;;20.10;55.70;;;;;;5068918;28;20024;-71
2023/01/21 04:54:10;;;;;;;7.80;5.22;;;20.20;55.70;;;;;;5050330;28;20077;-71
2023/01/21 04:56:36;;;;;;;7.70;5.05;;;20.10;55.80;;;;;;5069557;28;20020;-71
2023/01/21 04:59:01;;;;;;;8.40;4.80;;;20.20;55.80;;;;;;5069453;28;20025;-72
2023/01/21 05:01:27;;;;;;;7.82;4.72;;;20.10;56.00;;;;;;5060327;28;20430;-71
2023/01/21 05:03:53;;;;;;;8.15;4.57;;;20.10;55.80;;;;;;5070022;28;20055;-72
2023/01/21 05:06:19;;;;;;;9.02;5.03;;;20.10;55.80;;;;;;5062621;28;20024;-72
2023/01/21 05:08:45;;;;;;;9.00;4.72;;;20.10;56.20;;;;;;5050525;28;20020;-72
2023/01/21 05:11:17;;;;;;;8.98;5.28;;;20.10;55.80;;;;;;5061336;28;20472;-71
2023/01/21 05:13:43;;;;;;;8.23;4.45;;;20.10;56.00;;;;;;5069046;28;20033;-73
2023/01/21 05:16:09;;;;;;;8.43;4.78;;;20.10;56.00;;;;;;5064643;28;20388;-72
2023/01/21 05:18:36;;;;;;;8.27;4.93;;;20.10;56.10;;;;;;5068705;28;20029;-72
2023/01/21 05:21:02;;;;;;;6.68;4.30;;;20.10;56.00;;;;;;5050345;28;20111;-72
2023/01/21 05:23:28;;;;;;;7.80;4.65;;;20.10;56.10;;;;;;5050689;28;20405;-72
2023/01/21 05:25:54;;;;;;;8.55;4.82;;;20.10;56.10;;;;;;5068377;28;20060;-72
2023/01/21 05:28:20;;;;;;;10.02;4.55;;;20.10;56.40;;;;;;5069996;28;20044;-72
2023/01/21 05:30:46;;;;;;;7.78;4.70;;;20.20;56.80;;;;;;5069673;28;20028;-72
2023/01/21 05:33:12;;;;;;;7.97;4.45;;;20.20;56.60;;;;;;5069307;28;20388;-72
2023/01/21 05:35:37;;;;;;;8.23;4.80;;;20.20;56.60;;;;;;5069173;28;20017;-73
2023/01/21 05:38:03;;;;;;;10.57;5.00;;;20.10;57.00;;;;;;5069052;28;20468;-72
2023/01/21 05:40:29;;;;;;;12.57;4.95;;;20.10;56.60;;;;;;5051988;28;20081;-71
2023/01/21 05:42:55;;;;;;;8.30;4.28;;;20.10;56.60;;;;;;5069159;28;20032;-72
2023/01/21 05:45:20;;;;;;;7.38;4.50;;;20.20;56.80;;;;;;5068712;28;20060;-72
2023/01/21 05:47:46;;;;;;;7.82;4.55;;;20.20;56.30;;;;;;5069640;28;20028;-72
2023/01/21 05:50:12;;;;;;;7.90;4.20;;;20.20;56.60;;;;;;5069716;28;20021;-72
2023/01/21 05:52:38;;;;;;;7.35;4.53;;;20.10;56.40;;;;;;5050663;28;20024;-72
2023/01/21 05:55:04;;;;;;;8.05;3.95;;;20.10;57.20;;;;;;5069631;28;20036;-72
2023/01/21 05:57:31;;;;;;;6.75;4.28;;;20.20;56.70;;;;;;5050279;28;20352;-72
2023/01/21 05:59:57;;;;;;;8.85;4.53;;;20.10;56.30;;;;;;5051884;28;20041;-72
2023/01/21 06:02:23;;;;;;;8.40;4.53;;;20.10;56.50;;;;;;5050895;28;20158;-71
2023/01/21 06:04:49;;;;;;;6.25;3.97;;;20.20;56.90;;;;;;5055466;28;20374;-72
2023/01/21 06:07:15;;;;;;;7.85;4.65;;;20.10;56.60;;;;;;5027726;28;20027;-72
2023/01/21 06:09:41;;;;;;;13.82;5.00;;;20.10;56.90;;;;;;5073117;28;20063;-71
2023/01/21 06:12:06;;;;;;;7.22;4.25;;;20.10;56.60;;;;;;5055051;28;20115;-72
2023/01/21 06:14:32;;;;;;;8.15;4.22;;;20.20;56.40;;;;;;5071038;28;20031;-72
2023/01/21 06:16:58;;;;;;;8.82;3.95;;;20.20;57.30;;;;;;5073111;28;20462;-72
2023/01/21 06:19:23;;;;;;;6.60;3.95;;;20.20;57.00;;;;;;5055119;28;20029;-72
2023/01/21 06:21:51;;;;;;;9.57;3.97;;;20.20;56.80;;;;;;5072565;28;20107;-71
2023/01/21 06:24:17;;;;;;;6.60;3.95;;;20.20;56.40;;;;;;5053026;28;20409;-72
2023/01/21 06:26:42;;;;;;;7.05;4.28;;;20.20;57.40;;;;;;5055417;28;20402;-72
2023/01/21 06:29:08;;;;;;;8.25;4.78;;;20.10;56.30;;;;;;5054810;28;20016;-72
2023/01/21 06:31:34;;;;;;;8.02;4.20;;;20.20;56.30;;;;;;5055637;28;20120;-72
2023/01/21 06:34:00;;;;;;;6.68;4.05;;;20.20;56.20;;;;;;5071543;28;20024;-72
2023/01/21 06:36:25;;;;;;;8.27;4.53;;;20.10;56.20;;;;;;5070714;28;20911;-72
2023/01/21 06:38:51;;;;;;;8.63;4.20;;;20.20;56.20;;;;;;5062995;28;20540;-71
2023/01/21 06:41:17;;;;;;;8.50;4.60;;;20.20;56.10;;;;;;5054937;28;20033;-72
2023/01/21 06:43:43;;;;;;;6.68;4.60;;;20.10;56.50;;;;;;5072283;28;20028;-72
2023/01/21 06:46:09;;;;;;;6.75;4.25;;;20.10;57.30;;;;;;5072429;28;20028;-72
2023/01/21 06:48:35;;;;;;;6.25;3.88;;;20.10;57.10;;;;;;5072385;28;20020;-71
2023/01/21 06:51:01;;;;;;;7.70;4.50;;;20.20;56.70;;;;;;5071904;28;20027;-72
2023/01/21 06:53:27;;;;;;;7.68;4.68;;;20.10;56.90;;;;;;5071629;28;20032;-72
2023/01/21 06:55:53;;;;;;;8.27;4.25;;;20.10;57.30;;;;;;5036108;28;20036;-71
2023/01/21 06:58:18;;;;;;;7.60;4.43;;;20.10;57.00;;;;;;5071109;28;20027;-72
2023/01/21 07:00:44;;;;;;;7.03;4.07;;;20.20;57.00;;;;;;5057296;28;20127;-71
2023/01/21 07:03:10;;;;;;;7.80;4.30;;;20.10;56.60;;;;;;5071434;28;20097;-72
2023/01/21 07:05:36;;;;;;;6.10;3.85;;;20.10;56.90;;;;;;5036591;28;20036;-72
2023/01/21 07:08:02;;;;;;;8.23;4.35;;;20.10;57.10;;;;;;5071821;28;20099;-72
2023/01/21 07:10:28;;;;;;;9.30;4.97;;;20.20;56.90;;;;;;5054190;28;20476;-72
2023/01/21 07:12:54;;;;;;;8.65;4.38;;;20.10;56.40;;;;;;5036122;28;20028;-72
2023/01/21 07:15:19;;;;;;;7.38;4.35;;;20.10;56.80;;;;;;5070595;28;20468;-72
2023/01/21 07:17:45;;;;;;;8.45;4.25;;;20.10;57.00;;;;;;5052377;28;20120;-72
2023/01/21 07:20:11;;;;;;;9.40;4.57;;;20.10;57.10;;;;;;5071679;28;20028;-72
2023/01/21 07:22:38;;;;;;;7.07;4.25;;;20.10;56.50;;;;;;5071619;28;20503;-72
2023/01/21 07:25:04;;;;;;;7.40;4.25;;;20.10;56.80;;;;;;5053616;28;20024;-72
2023/01/21 07:27:30;;;;;;;7.93;4.40;;;20.10;56.90;;;;;;5036683;28;20427;-71
2023/01/21 07:29:55;;;;;;;7.78;4.65;;;20.10;57.20;;;;;;5053186;28;20028;-72
2023/01/21 07:32:21;;;;;;;8.25;4.32;;;20.10;56.70;;;;;;5071200;28;20476;-72
2023/01/21 07:34:47;;;;;;;9.82;4.43;;;20.10;57.30;;;;;;5053356;28;20036;-72
2023/01/21 07:37:13;;;;;;;9.63;4.72;;;20.10;57.70;;;;;;5053780;28;20115;-72
2023/01/21 07:39:39;;;;;;;8.48;4.50;;;20.10;57.40;;;;;;5052964;28;20036;-72
2023/01/21 07:42:04;;;;;;;9.50;5.20;;;20.10;56.90;;;;;;5070859;28;20543;-72
2023/01/21 07:44:30;;;;;;;9.10;4.25;;;20.10;57.20;;;;;;5053590;28;20401;-72
2023/01/21 07:46:56;;;;;;;6.93;4.55;;;20.10;56.80;;;;;;5070894;28;20028;-72
2023/01/21 07:49:22;;;;;;;9.88;4.68;;;20.10;56.80;;;;;;5052703;28;20029;-72
2023/01/21 07:51:48;;;;;;;8.73;4.75;;;20.10;56.40;;;;;;5052702;28;20032;-72
2023/01/21 07:54:14;;;;;;;7.05;4.78;;;20.10;56.50;;;;;;5052897;28;20480;-72
2023/01/21 07:56:40;;;;;;;8.57;4.13;;;20.10;56.50;;;;;;5068994;28;20112;-72
2023/01/21 07:59:06;;;;;;;10.75;4.25;;;20.10;57.10;;;;;;5070567;28;20412;-73
2023/01/21 08:01:32;;;;;;;10.07;4.90;;;20.10;56.50;;;;;;5051681;28;20099;-72
2023/01/21 08:03:58;;;;;;;7.32;4.60;;;20.10;56.60;;;;;;5070618;28;20012;-71
2023/01/21 08:06:24;;;;;;;7.47;4.20;;;20.10;56.70;;;;;;5070735;28;20066;-71
2023/01/21 08:08:50;;;;;;;9.57;4.72;;;20.10;57.30;;;;;;5070143;28;20047;-72
2023/01/21 08:11:16;;;;;;;9.25;4.40;;;20.10;57.00;;;;;;5070575;28;20020;-71
2023/01/21 08:13:43;;;;;;;11.85;4.75;;;20.10;57.50;;;;;;5069654;28;20036;-72
2023/01/21 08:16:12;;;;;;;8.50;4.60;;;20.10;57.20;;;;;;5052283;28;20401;-73
2023/01/21 08:18:38;;;;;;;8.68;4.45;;;20.10;57.10;;;;;;5052835;28;20040;-72
2023/01/21 08:21:04;;;;;;;9.40;4.65;;;20.10;57.20;;;;;;5070253;28;20535;-72
2023/01/21 08:23:30;;;;;;;7.25;4.82;;;20.10;56.90;;;;;;5069604;28;20055;-73
2023/01/21 08:26:00;;;;;;;7.25;4.65;;;20.10;56.80;;;;;;5035640;28;20016;-71
2023/01/21 08:28:26;;;;;;;8.13;4.68;;;20.10;56.80;;;;;;5041766;28;20528;-72
2023/01/21 08:30:52;;;;;;;7.28;4.13;;;20.10;56.80;;;;;;5069980;28;20107;-71
2023/01/21 08:33:18;;;;;;;9.65;4.40;;;20.10;57.50;;;;;;5070085;28;20562;-72
2023/01/21 08:35:44;;;;;;;7.20;4.13;;;20.10;57.40;;;;;;5052343;28;20036;-72
2023/01/21 08:38:09;;;;;;;7.65;4.40;;;20.10;57.40;;;;;;5052190;28;20055;-72
2023/01/21 08:40:35;;;;;;;9.98;4.78;;;20.10;57.20;;;;;;5052605;28;20042;-72
2023/01/21 08:43:03;;;;;;;8.20;4.43;;;20.10;57.00;;;;;;5069902;28;20028;-72
2023/01/21 08:45:29;;;;;;;8.05;4.47;;;20.10;57.20;;;;;;5052418;28;20437;-72
2023/01/21 08:47:55;;;;;;;10.63;4.85;;;20.10;57.20;;;;;;5052598;28;20119;-72
2023/01/21 08:50:21;;;;;;;8.15;4.28;;;20.10;56.80;;;;;;5053160;28;20434;-72
2023/01/21 08:52:54;;;;;;;7.03;4.13;;;20.10;57.10;;;;;;5069537;28;20097;-72
2023/01/21 08:55:25;;;;;;;6.28;4.07;;;20.10;57.60;;;;;;5051379;28;20036;-72
2023/01/21 08:57:53;;;;;;;9.20;4.25;;;20.10;57.30;;;;;;5051151;28;20128;-71
2023/01/21 09:00:20;;;;;;;7.60;4.43;;;20.10;57.40;;;;;;5050216;28;20025;-72
2023/01/21 09:02:46;;;;;;;10.02;5.05;;;20.10;57.10;;;;;;5054725;28;20104;-72
2023/01/21 09:05:11;;;;;;;7.68;4.63;;;20.10;57.20;;;;;;5052558;28;20115;-72
2023/01/21 09:07:37;;;;;;;7.05;4.47;;;20.10;57.10;;;;;;5056830;28;20035;-73
2023/01/21 09:10:04;;;;;;;7.50;4.43;;;20.10;56.80;;;;;;5070613;28;20048;-73
2023/01/21 09:12:31;;;;;;;6.82;4.40;;;20.10;57.10;;;;;;5069445;28;20037;-74
2023/01/21 09:14:56;;;;;;;8.73;4.32;;;20.10;57.70;;;;;;5052629;28;20073;-73
2023/01/21 09:17:22;;;;;;;9.55;4.65;;;20.10;57.20;;;;;;5069538;28;20060;-73
2023/01/21 09:19:48;;;;;;;8.07;4.50;;;20.10;56.80;;;;;;5051872;28;20036;-75
2023/01/21 09:22:15;;;;;;;8.45;4.50;;;20.10;57.30;;;;;;5068405;28;20029;-74
2023/01/21 09:24:50;;;;;;;6.57;3.88;;;20.10;57.40;;;;;;5015650;28;20465;-73
2023/01/21 09:27:16;;;;;;;8.77;4.40;;;20.00;56.80;;;;;;5043292;28;20105;-73
2023/01/21 09:29:41;;;;;;;8.40;4.28;;;20.10;57.30;;;;;;5069445;28;20028;-74
2023/01/21 09:32:08;;;;;;;6.78;4.07;;;20.10;57.40;;;;;;5069157;28;20036;-74
2023/01/21 09:34:34;;;;;;;8.85;4.35;;;20.10;57.20;;;;;;5069367;28;20232;-73
2023/01/21 09:37:00;;;;;;;9.82;5.00;;;20.10;57.30;;;;;;5052432;28;20507;-73
2023/01/21 09:39:26;;;;;;;6.95;4.18;;;20.10;57.20;;;;;;5071929;28;20035;-74
2023/01/21 09:41:55;;;;;;;8.35;4.57;;;20.10;57.10;;;;;;5056110;28;20040;-72
2023/01/21 09:44:34;;;;;;;7.78;4.30;;;20.10;56.90;;;;;;5072192;28;20033;-73
2023/01/21 09:47:27;;;;;;;7.82;4.70;;;20.10;57.10;;;;;;5070470;28;20103;-74
2023/01/21 09:50:10;;;;;;;7.35;4.50;;;20.10;57.00;;;;;;5054331;28;20095;-74
2023/01/21 09:52:40;;;;;;;6.97;4.35;;;20.10;56.70;;;;;;5053933;28;20032;-73
2023/01/21 09:55:13;;;;;;;;;;;20.10;56.60;;;;;;5044298;28;20025;-72
2023/01/21 09:58:00;;;;;;;9.73;4.50;;;20.10;56.60;;;;;;5072909;28;19977;-75
2023/01/21 10:00:34;;;;;;;7.75;4.60;;;20.10;56.80;;;;;;5054989;28;20043;-74
2023/01/21 10:03:16;;;;;;;6.80;4.15;;;20.10;56.60;;;;;;5066849;28;20556;-73
2023/01/21 10:06:08;;;;;;;9.40;4.30;;;20.10;56.50;;;;;;5019488;28;20027;-74
2023/01/21 10:08:52;;;;;;;8.50;4.68;;;20.10;56.50;;;;;;5052255;28;20052;-73
2023/01/21 10:11:49;;;;;;;9.23;4.70;;;20.00;56.60;;;;;;5067992;28;20033;-72
2023/01/21 10:14:14;;;;;;;7.70;4.70;;;20.10;56.80;;;;;;5053941;28;20033;-75
2023/01/21 10:17:00;;;;;;;8.50;4.80;;;20.10;56.90;;;;;;5062121;28;20036;-73
2023/01/21 10:19:35;;;;;;;6.47;4.40;;;20.10;57.30;;;;;;5051957;28;20480;-75
2023/01/21 10:22:08;;;;;;;15.55;9.25;;;20.10;56.60;;;;;;5069358;28;20021;-75
2023/01/21 10:24:48;;;;;;;21.15;10.27;;;19.90;51.80;;;;;;5035694;28;20025;-74
2023/01/21 10:27:17;;;;;;;19.35;10.88;;;19.60;45.70;;;;;;5071306;28;20136;-74
2023/01/21 10:29:43;;;;;;;16.17;8.60;;;19.50;45.90;;;;;;5051257;28;20550;-73
2023/01/21 10:32:17;;;;;;;23.80;7.75;;;19.50;49.20;;;;;;5061355;28;20436;-72
2023/01/21 10:34:54;;;;;;;18.42;7.80;;;19.60;49.70;;;;;;5059409;28;20037;-73
2023/01/21 10:37:32;;;;;;;16.38;7.70;;;19.70;49.80;;;;;;5071521;28;20032;-74
2023/01/21 10:40:41;;;;;;;16.42;8.50;;;19.80;53.30;;;;;;5073317;28;20036;-73
2023/01/21 10:43:14;;;;;;;37.25;10.13;;;20.00;57.20;;;;;;5072688;28;20032;-73
2023/01/21 10:45:58;;;;;;;21.08;9.70;;;20.20;57.60;;;;;;5071713;28;20035;-72
2023/01/21 10:48:53;;;;;;;29.15;9.77;;;20.40;61.60;;;;;;5072727;28;20021;-72
2023/01/21 10:51:54;;;;;;;21.95;10.27;;;20.40;62.60;;;;;;5072644;28;20037;-72
2023/01/21 10:54:48;;;;;;;21.98;9.13;;;20.40;61.20;;;;;;5053569;28;20028;-73
2023/01/21 10:57:26;;;;;;;17.02;8.95;;;20.30;58.50;;;;;;5072323;28;20032;-72
2023/01/21 10:59:55;;;;;;;16.25;8.77;;;20.20;56.00;;;;;;5054854;28;20036;-73
2023/01/21 11:02:29;;;;;;;14.35;7.68;;;20.20;55.70;;;;;;5053587;28;20029;-72
2023/01/21 11:04:57;;;;;;;16.80;8.10;;;20.20;56.00;;;;;;5067461;28;20020;-72
2023/01/21 11:07:25;;;;;;;18.10;9.38;;;20.20;57.00;;;;;;5052832;28;20465;-73
2023/01/21 11:09:51;;;;;;;22.98;9.23;;;20.20;57.90;;;;;;5071260;28;20017;-75
2023/01/21 11:12:22;;;;;;;24.75;9.15;;;20.20;57.00;;;;;;5051511;28;20036;-75
2023/01/21 11:14:56;;;;;;;16.73;8.85;;;20.20;56.10;;;;;;5071596;28;20051;-74
2023/01/21 11:17:36;;;;;;;15.35;8.75;;;20.20;56.00;;;;;;5072419;28;20111;-73
2023/01/21 11:20:16;;;;;;;18.30;8.85;;;20.20;58.20;;;;;;5052877;28;20082;-74
2023/01/21 11:22:44;;;;;;;21.02;8.23;;;20.20;58.50;;;;;;5052931;28;20043;-73
2023/01/21 11:25:39;;;;;;;20.40;8.57;;;20.20;58.70;;;;;;5071483;28;20495;-74
2023/01/21 11:28:29;;;;;;;17.33;7.45;;;20.20;58.50;;;;;;5045796;28;20493;-74
2023/01/21 11:31:05;;;;;;;19.70;7.55;;;20.20;57.80;;;;;;5036700;28;20484;-73
2023/01/21 11:33:31;;;;;;;16.63;7.28;;;20.20;57.50;;;;;;5072184;28;20020;-72
2023/01/21 11:36:14;;;;;;;17.33;7.63;;;20.20;57.70;;;;;;5053896;28;20056;-74
2023/01/21 11:38:42;;;;;;;16.17;7.80;;;20.20;57.60;;;;;;5062423;23;20017;-72
2023/01/21 11:41:10;;;;;;;13.88;7.25;;;20.20;57.70;;;;;;5045374;28;20035;-72
2023/01/21 11:43:44;;;;;;;17.40;8.15;;;20.20;57.40;;;;;;5050844;28;20020;-73
2023/01/21 11:46:25;;;;;;;16.63;7.15;;;20.10;56.70;;;;;;5050049;28;20096;-72
2023/01/21 11:49:06;;;;;;;20.55;7.50;;;20.20;57.00;;;;;;5053200;28;20404;-73
2023/01/21 11:51:39;;;;;;;13.95;7.57;;;20.20;56.30;;;;;;5069765;28;20067;-72
2023/01/21 11:54:15;;;;;;;14.98;7.55;;;20.20;56.80;;;;;;5071149;28;20396;-73
2023/01/21 11:57:00;;;;;;;19.35;8.02;;;20.20;56.40;;;;;;5062779;28;20040;-72
2023/01/21 11:59:44;;;;;;;29.73;9.18;;;20.20;58.00;;;;;;5049073;28;20033;-72
2023/01/21 12:02:28;;;;;;;19.60;8.60;;;20.20;58.10;;;;;;5049397;28;20029;-72
2023/01/21 12:05:07;;;;;;;20.27;7.95;;;20.30;58.20;;;;;;5049368;28;20033;-72
2023/01/21 12:07:36;;;;;;;;;;;20.30;58.50;;;;;;5048524;28;20059;-73
2023/01/21 12:10:11;;;;;;;19.48;8.48;;;20.30;57.70;;;;;;5048811;28;20016;-72
2023/01/21 12:13:06;;;;;;;13.15;7.90;;;20.20;57.20;;;;;;5048398;28;20035;-73
2023/01/21 12:16:09;;;;;;;13.27;7.00;;;20.20;57.40;;;;;;5049023;28;20086;-74
2023/01/21 12:19:07;;;;;;;14.63;7.38;;;20.20;57.60;;;;;;5049664;28;20492;-74
2023/01/21 12:21:56;;;;;;;15.00;7.63;;;20.20;57.90;;;;;;5051044;28;20500;-73
2023/01/21 12:24:40;;;;;;;14.82;6.72;;;20.20;57.70;;;;;;5050578;28;20386;-72
2023/01/21 12:27:12;;;;;;;16.58;7.38;;;20.20;58.60;;;;;;5049506;28;20025;-73
2023/01/21 12:30:05;;;;;;;13.70;7.35;;;20.20;58.30;;;;;;5051408;28;20075;-75
2023/01/21 12:32:42;;;;;;;16.55;6.78;;;20.20;58.10;;;;;;5048849;28;20114;-75
2023/01/21 12:35:25;;;;;;;23.35;7.80;;;20.20;58.30;;;;;;5034767;28;20036;-73
2023/01/21 12:37:57;;;;;;;14.55;7.15;;;20.30;58.40;;;;;;5039630;28;20439;-73
2023/01/21 12:40:32;;;;;;;21.20;7.60;;;20.30;58.10;;;;;;5049814;28;20464;-73
2023/01/21 12:43:11;;;;;;;15.80;6.88;;;20.20;57.70;;;;;;5051890;28;20171;-73
2023/01/21 12:45:45;;;;;;;16.98;7.80;;;20.20;57.70;;;;;;5050322;28;20550;-73
2023/01/21 12:48:29;;;;;;;17.67;6.63;;;20.10;57.90;;;;;;5050826;28;20025;-73
2023/01/21 12:51:00;;;;;;;12.85;6.13;;;20.10;57.70;;;;;;5050612;28;20043;-73
2023/01/21 12:53:36;;;;;;;16.20;6.30;;;20.10;57.70;;;;;;5051238;28;20103;-73
2023/01/21 12:56:11;;;;;;;13.88;6.35;;;20.10;57.70;;;;;;5049283;28;20044;-73
2023/01/21 12:59:03;;;;;;;14.32;7.10;;;20.10;57.70;;;;;;5050666;28;20029;-73
2023/01/21 13:01:32;;;;;;;14.85;6.50;;;20.00;57.60;;;;;;5044923;28;20146;-73
2023/01/21 13:04:05;;;;;;;12.38;6.18;;;20.00;57.80;;;;;;5050915;28;20026;-73
2023/01/21 13:06:54;;;;;;;12.90;6.63;;;20.00;57.70;;;;;;5049095;28;20374;-73